createdAt,value
2022-10-16T00:02:26.830Z,98228.34
2022-10-16T00:04:55.673Z,98230.03
2022-10-16T00:07:23.748Z,98241.88
2022-10-16T00:09:52.145Z,98241.72
2022-10-16T00:12:20.133Z,98233.50
2022-10-16T00:14:47.906Z,98248.25
2022-10-16T00:17:17.341Z,98247.84
2022-10-16T00:19:45.137Z,98250.94
2022-10-16T00:22:13.221Z,98252.19
2022-10-16T00:24:40.925Z,98257.75
2022-10-16T00:27:08.880Z,98259.66
2022-10-16T00:29:36.597Z,98258.34
2022-10-16T00:32:04.854Z,98261.25
2022-10-16T00:34:34.200Z,98263.28
2022-10-16T00:37:02.093Z,98259.19
2022-10-16T00:39:29.788Z,98267.44
2022-10-16T00:41:57.861Z,98275.19
2022-10-16T00:44:47.477Z,98272.72
2022-10-16T00:47:20.601Z,98281.72
2022-10-16T00:49:53.726Z,98287.44
2022-10-16T00:52:22.006Z,98283.19
2022-10-16T00:54:51.714Z,98269.31
2022-10-16T00:57:20.001Z,98282.25
2022-10-16T00:59:48.018Z,98279.06
2022-10-16T01:02:17.910Z,98277.47
2022-10-16T01:04:48.029Z,98281.00
2022-10-16T01:07:32.298Z,98281.44
2022-10-16T01:10:09.697Z,98288.38
2022-10-16T01:12:47.071Z,98274.34
2022-10-16T01:15:25.651Z,98284.78
2022-10-16T01:17:59.785Z,98270.50
2022-10-16T01:20:31.466Z,98277.31
2022-10-16T01:23:06.101Z,98270.97
2022-10-16T01:25:50.207Z,98271.41
2022-10-16T01:28:22.887Z,98283.22
2022-10-16T01:30:55.457Z,98281.63
2022-10-16T01:33:26.410Z,98277.19
2022-10-16T01:35:57.012Z,98282.03
2022-10-16T01:38:31.851Z,98288.06
2022-10-16T01:41:03.522Z,98291.03
2022-10-16T01:43:38.401Z,98297.91
2022-10-16T01:46:07.681Z,98293.56
2022-10-16T01:48:37.353Z,98298.34
2022-10-16T01:51:09.282Z,98299.94
2022-10-16T01:53:38.081Z,98293.44
2022-10-16T01:56:09.728Z,98291.66
2022-10-16T01:58:44.418Z,98293.19
2022-10-16T02:04:09.554Z,98302.06
2022-10-16T02:06:37.797Z,98298.72
2022-10-16T02:09:06.040Z,98302.59
2022-10-16T02:11:33.853Z,98300.41
2022-10-16T02:14:07.096Z,98307.19
2022-10-16T02:16:36.154Z,98306.75
2022-10-16T02:19:04.818Z,98307.00
2022-10-16T02:21:40.965Z,98303.03
2022-10-16T02:24:16.666Z,98301.06
2022-10-16T02:26:50.407Z,98294.94
2022-10-16T02:29:25.812Z,98295.53
2022-10-16T02:31:57.350Z,98298.22
2022-10-16T02:34:27.871Z,98288.38
2022-10-16T02:36:57.721Z,98294.75
2022-10-16T02:39:26.240Z,98287.72
2022-10-16T02:41:54.126Z,98294.75
2022-10-16T02:44:23.503Z,98295.19
2022-10-16T02:46:51.250Z,98289.25
2022-10-16T02:49:19.644Z,98300.72
2022-10-16T02:51:47.469Z,98294.91
2022-10-16T02:54:15.354Z,98299.13
2022-10-16T02:56:43.156Z,98302.91
2022-10-16T02:59:11.169Z,98309.88
2022-10-16T03:01:40.288Z,98301.22
2022-10-16T03:04:08.344Z,98306.88
2022-10-16T03:06:36.783Z,98302.56
2022-10-16T03:09:04.809Z,98297.13
2022-10-16T03:11:32.601Z,98303.06
2022-10-16T03:14:00.482Z,98300.91
2022-10-16T03:16:28.303Z,98291.97
2022-10-16T03:18:57.615Z,98291.75
2022-10-16T03:21:25.766Z,98298.59
2022-10-16T03:23:53.814Z,98285.16
2022-10-16T03:26:21.716Z,98302.00
2022-10-16T03:28:49.689Z,98305.44
2022-10-16T03:31:17.539Z,98308.38
2022-10-16T03:33:45.712Z,98317.91
2022-10-16T03:36:14.754Z,98315.91
2022-10-16T03:38:43.151Z,98322.25
2022-10-16T03:41:11.019Z,98335.25
2022-10-16T03:43:38.874Z,98342.50
2022-10-16T03:46:07.060Z,98334.09
2022-10-16T03:48:35.450Z,98336.63
2022-10-16T03:51:03.170Z,98342.75
2022-10-16T03:53:32.437Z,98346.84
2022-10-16T03:56:00.389Z,98348.91
2022-10-16T03:58:28.249Z,98350.94
2022-10-16T04:00:56.168Z,98348.19
2022-10-16T04:03:24.525Z,98352.16
2022-10-16T04:05:52.528Z,98353.88
2022-10-16T04:08:20.605Z,98355.69
2022-10-16T04:10:49.844Z,98368.44
2022-10-16T04:13:17.764Z,98360.81
2022-10-16T04:15:47.245Z,98372.44
2022-10-16T04:18:15.310Z,98365.38
2022-10-16T04:20:43.060Z,98360.03
2022-10-16T04:23:10.989Z,98354.78
2022-10-16T04:25:38.879Z,98359.91
2022-10-16T04:28:08.129Z,98366.28
2022-10-16T04:30:35.918Z,98360.00
2022-10-16T04:33:03.959Z,98362.75
2022-10-16T04:35:31.698Z,98360.94
2022-10-16T04:37:59.597Z,98372.03
2022-10-16T04:40:27.532Z,98363.88
2022-10-16T04:42:55.465Z,98365.25
2022-10-16T04:45:24.557Z,98367.06
2022-10-16T04:47:52.593Z,98375.72
2022-10-16T04:50:20.290Z,98362.06
2022-10-16T04:52:48.306Z,98373.19
2022-10-16T04:55:16.482Z,98372.84
2022-10-16T04:57:44.391Z,98375.22
2022-10-16T05:00:12.966Z,98368.88
2022-10-16T05:02:42.363Z,98377.50
2022-10-16T05:05:10.687Z,98372.09
2022-10-16T05:07:38.564Z,98379.09
2022-10-16T05:10:07.225Z,98360.69
2022-10-16T05:12:35.165Z,98376.94
2022-10-16T05:15:02.870Z,98377.97
2022-10-16T05:17:30.902Z,98373.41
2022-10-16T05:20:00.057Z,98376.81
2022-10-16T05:22:28.118Z,98381.59
2022-10-16T05:24:56.082Z,98382.72
2022-10-16T05:27:24.309Z,98376.56
2022-10-16T05:29:52.528Z,98376.38
2022-10-16T05:32:20.986Z,98378.91
2022-10-16T05:34:48.759Z,98340.47
2022-10-16T05:37:18.277Z,98395.84
2022-10-16T05:39:46.333Z,98380.81
2022-10-16T05:42:14.222Z,98380.28
2022-10-16T05:44:41.936Z,98388.91
2022-10-16T05:47:09.962Z,98389.59
2022-10-16T05:49:40.419Z,98396.19
2022-10-16T05:52:09.708Z,98392.56
2022-10-16T05:54:38.888Z,98391.41
2022-10-16T05:57:07.546Z,98394.59
2022-10-16T05:59:35.368Z,98396.19
2022-10-16T06:02:03.394Z,98394.59
2022-10-16T06:04:31.191Z,98395.47
2022-10-16T06:07:01.202Z,98393.44
2022-10-16T06:09:29.066Z,98402.19
2022-10-16T06:11:58.494Z,98406.63
2022-10-16T06:14:26.600Z,98419.25
2022-10-16T06:16:54.590Z,98417.78
2022-10-16T06:19:22.341Z,98425.97
2022-10-16T06:21:50.296Z,98423.25
2022-10-16T06:24:18.143Z,98428.28
2022-10-16T06:26:46.057Z,98432.34
2022-10-16T06:29:15.101Z,98439.63
2022-10-16T06:31:43.269Z,98444.84
2022-10-16T06:34:12.434Z,98446.41
2022-10-16T06:36:41.008Z,98447.41
2022-10-16T06:39:09.078Z,98448.09
2022-10-16T06:41:37.520Z,98455.28
2022-10-16T06:44:07.478Z,98442.94
2022-10-16T06:46:36.949Z,98449.13
2022-10-16T06:49:04.735Z,98459.56
2022-10-16T06:51:37.868Z,98469.00
2022-10-16T06:54:08.470Z,98474.16
2022-10-16T06:56:36.649Z,98474.78
2022-10-16T06:59:05.500Z,98476.59
2022-10-16T07:01:34.622Z,98476.59
2022-10-16T07:04:04.039Z,98475.56
2022-10-16T07:06:34.438Z,98476.78
2022-10-16T07:09:05.138Z,98485.44
2022-10-16T07:11:33.381Z,98484.75
2022-10-16T07:14:01.281Z,98471.00
2022-10-16T07:16:30.949Z,98475.91
2022-10-16T07:19:00.579Z,98467.47
2022-10-16T07:21:36.150Z,98479.38
2022-10-16T07:24:05.233Z,98482.56
2022-10-16T07:26:36.889Z,98485.91
2022-10-16T07:29:05.279Z,98491.06
2022-10-16T07:31:34.135Z,98489.13
2022-10-16T07:34:02.555Z,98492.19
2022-10-16T07:36:31.839Z,98487.19
2022-10-16T07:39:00.426Z,98493.59
2022-10-16T07:41:29.130Z,98492.41
2022-10-16T07:43:58.270Z,98493.47
2022-10-16T07:46:26.361Z,98486.22
2022-10-16T07:48:54.560Z,98483.84
2022-10-16T07:51:24.135Z,98500.50
2022-10-16T07:53:54.491Z,98506.81
2022-10-16T07:56:23.813Z,98508.03
2022-10-16T07:58:52.288Z,98511.38
2022-10-16T08:01:21.084Z,98517.34
2022-10-16T08:03:50.639Z,98515.84
2022-10-16T08:06:23.519Z,98508.91
2022-10-16T08:08:56.609Z,98512.81
2022-10-16T08:11:25.049Z,98512.09
2022-10-16T08:13:52.776Z,98513.59
2022-10-16T08:16:21.234Z,98523.63
2022-10-16T08:18:49.308Z,98528.94
2022-10-16T08:21:21.224Z,98529.91
2022-10-16T08:23:54.505Z,98524.91
2022-10-16T08:26:27.342Z,98530.56
2022-10-16T08:28:56.011Z,98538.41
2022-10-16T08:31:24.680Z,98539.38
2022-10-16T08:33:53.285Z,98536.28
2022-10-16T08:36:21.365Z,98537.38
2022-10-16T08:38:50.724Z,98533.75
2022-10-16T08:41:38.164Z,98533.59
2022-10-16T08:44:39.518Z,98547.03
2022-10-16T08:47:15.117Z,98549.69
2022-10-16T08:49:55.882Z,98542.94
2022-10-16T08:52:26.107Z,98536.19
2022-10-16T08:54:57.231Z,98550.56
2022-10-16T08:57:27.904Z,98555.03
2022-10-16T09:00:01.809Z,98546.44
2022-10-16T09:02:36.955Z,98551.31
2022-10-16T09:05:22.629Z,98550.88
2022-10-16T09:10:40.550Z,98550.88
2022-10-16T09:13:19.571Z,98557.97
2022-10-16T09:15:57.790Z,98558.75
2022-10-16T09:18:32.928Z,98556.69
2022-10-16T09:21:07.429Z,98564.81
2022-10-16T09:23:38.483Z,98558.53
2022-10-16T09:26:11.311Z,98561.78
2022-10-16T09:28:39.420Z,98558.81
2022-10-16T09:31:15.394Z,98567.59
2022-10-16T09:33:44.317Z,98572.88
2022-10-16T09:36:14.118Z,98570.22
2022-10-16T09:38:42.116Z,98571.03
2022-10-16T09:41:18.584Z,98571.97
2022-10-16T09:43:51.666Z,98562.47
2022-10-16T09:46:28.208Z,98579.13
2022-10-16T09:48:58.593Z,98573.13
2022-10-16T09:51:29.101Z,98572.69
2022-10-16T09:53:59.338Z,98567.94
2022-10-16T09:56:29.431Z,98577.84
2022-10-16T09:58:59.116Z,98584.56
2022-10-16T10:01:33.277Z,98577.41
2022-10-16T10:04:03.779Z,98580.88
2022-10-16T10:06:34.677Z,98584.31
2022-10-16T10:09:07.761Z,98583.47
2022-10-16T10:11:54.905Z,98583.25
2022-10-16T10:14:26.320Z,98583.66
2022-10-16T10:17:12.989Z,98582.66
2022-10-16T10:19:42.961Z,98585.00
2022-10-16T10:22:24.910Z,98591.59
2022-10-16T10:25:14.371Z,98582.78
2022-10-16T10:27:54.421Z,98592.31
2022-10-16T10:30:27.068Z,98589.84
2022-10-16T10:33:11.662Z,98589.84
2022-10-16T10:35:46.059Z,98588.03
2022-10-16T10:38:29.286Z,98584.06
2022-10-16T10:41:14.087Z,98587.56
2022-10-16T10:43:57.869Z,98582.69
2022-10-16T10:46:33.717Z,98582.31
2022-10-16T10:49:17.715Z,98578.44
2022-10-16T10:51:54.410Z,98582.88
2022-10-16T10:54:30.752Z,98587.34
2022-10-16T10:57:03.728Z,98578.69
2022-10-16T10:59:59.198Z,98580.81
2022-10-16T11:02:36.897Z,98574.50
2022-10-16T11:05:37.562Z,98584.47
2022-10-16T11:08:11.865Z,98582.16
2022-10-16T11:10:47.783Z,98582.16
2022-10-16T11:13:25.573Z,98581.41
2022-10-16T11:15:57.550Z,98586.16
2022-10-16T11:18:32.087Z,98587.00
2022-10-16T11:21:06.253Z,98574.34
2022-10-16T11:23:41.034Z,98579.09
2022-10-16T11:26:15.082Z,98568.81
2022-10-16T11:28:48.720Z,98577.91
2022-10-16T11:31:23.981Z,98575.16
2022-10-16T11:33:59.369Z,98574.75
2022-10-16T11:36:35.241Z,98571.22
2022-10-16T11:39:12.239Z,98579.13
2022-10-16T11:41:46.494Z,98572.81
2022-10-16T11:44:35.245Z,98583.06
2022-10-16T11:47:54.064Z,98579.13
2022-10-16T11:50:04.724Z,98581.53
2022-10-16T11:52:41.282Z,98580.72
2022-10-16T11:55:17.904Z,98583.09
2022-10-16T11:57:49.517Z,98580.69
2022-10-16T12:00:24.749Z,98585.44
2022-10-16T12:03:02.338Z,98582.66
2022-10-16T12:05:38.060Z,98588.59
2022-10-16T12:08:12.510Z,98590.97
2022-10-16T12:10:42.829Z,98591.75
2022-10-16T12:13:31.770Z,98588.97
2022-10-16T12:16:07.872Z,98587.44
2022-10-16T12:18:35.906Z,98589.38
2022-10-16T12:21:07.516Z,98588.19
2022-10-16T12:23:40.259Z,98587.44
2022-10-16T12:26:08.408Z,98595.72
2022-10-16T12:28:37.220Z,98582.25
2022-10-16T12:31:07.809Z,98590.94
2022-10-16T12:33:37.338Z,98590.16
2022-10-16T12:36:11.313Z,98592.50
2022-10-16T12:38:48.447Z,98589.34
2022-10-16T12:41:27.226Z,98591.75
2022-10-16T12:43:55.364Z,98598.88
2022-10-16T12:46:39.140Z,98600.03
2022-10-16T12:49:22.181Z,98596.47
2022-10-16T12:51:50.115Z,98605.19
2022-10-16T12:54:22.297Z,98609.94
2022-10-16T12:57:10.528Z,98605.19
2022-10-16T12:59:48.689Z,98602.03
2022-10-16T13:03:04.212Z,98605.16
2022-10-16T13:05:48.242Z,98608.31
2022-10-16T13:08:37.457Z,98608.31
2022-10-16T13:11:15.644Z,98609.91
2022-10-16T13:14:02.305Z,98621.72
2022-10-16T13:16:43.098Z,98617.75
2022-10-16T13:19:23.119Z,98616.19
2022-10-16T13:22:00.750Z,98620.94
2022-10-16T13:24:44.024Z,98624.50
2022-10-16T13:27:26.195Z,98617.75
2022-10-16T13:30:02.373Z,98622.09
2022-10-16T13:32:30.967Z,98630.38
2022-10-16T13:34:59.274Z,98619.31
2022-10-16T13:37:29.002Z,98625.66
2022-10-16T13:40:09.644Z,98630.81
2022-10-16T13:42:38.934Z,98636.75
2022-10-16T13:45:08.056Z,98631.22
2022-10-16T13:47:35.751Z,98635.53
2022-10-16T13:50:05.585Z,98639.88
2022-10-16T13:52:34.292Z,98639.88
2022-10-16T13:55:02.680Z,98646.97
2022-10-16T13:57:30.878Z,98651.31
2022-10-16T14:00:00.221Z,98654.09
2022-10-16T14:02:33.261Z,98653.28
2022-10-16T14:05:01.376Z,98658.84
2022-10-16T14:07:32.078Z,98659.56
2022-10-16T14:10:03.729Z,98661.13
2022-10-16T14:12:32.470Z,98657.16
2022-10-16T14:15:02.884Z,98650.03
2022-10-16T14:17:34.716Z,98656.78
2022-10-16T14:20:07.075Z,98660.31
2022-10-16T14:22:38.305Z,98653.22
2022-10-16T14:25:31.132Z,98646.06
2022-10-16T14:30:33.040Z,98657.91
2022-10-16T14:33:02.406Z,98651.59
2022-10-16T14:35:33.008Z,98643.66
2022-10-16T14:38:02.900Z,98643.72
2022-10-16T14:40:33.915Z,98624.00
2022-10-16T14:43:03.268Z,98639.88
2022-10-16T14:45:35.585Z,98643.41
2022-10-16T14:48:18.791Z,98641.44
2022-10-16T14:50:48.884Z,98640.69
2022-10-16T14:53:16.891Z,98626.47
2022-10-16T14:55:45.375Z,98634.72
2022-10-16T14:58:17.180Z,98637.03
2022-10-16T15:00:46.372Z,98650.69
2022-10-16T15:03:14.619Z,98654.69
2022-10-16T15:05:42.644Z,98642.09
2022-10-16T15:08:10.366Z,98646.91
2022-10-16T15:10:41.568Z,98656.38
2022-10-16T15:13:13.592Z,98671.00
2022-10-16T15:15:46.769Z,98676.13
2022-10-16T15:18:15.846Z,98669.81
2022-10-16T15:20:44.252Z,98677.69
2022-10-16T15:23:16.809Z,98678.38
2022-10-16T15:25:47.285Z,98675.97
2022-10-16T15:28:17.206Z,98679.06
2022-10-16T15:30:47.873Z,98672.31
2022-10-16T15:33:19.113Z,98673.41
2022-10-16T15:35:49.690Z,98676.53
2022-10-16T15:38:18.165Z,98678.41
2022-10-16T15:40:49.708Z,98688.94
2022-10-16T15:43:17.670Z,98683.38
2022-10-16T15:46:00.020Z,98681.00
2022-10-16T15:48:27.873Z,98683.31
2022-10-16T15:50:55.869Z,98676.91
2022-10-16T15:53:23.757Z,98684.31
2022-10-16T15:55:51.993Z,98686.25
2022-10-16T15:58:19.804Z,98693.50
2022-10-16T16:00:56.445Z,98688.22
2022-10-16T16:03:24.454Z,98693.53
2022-10-16T16:05:52.379Z,98688.72
2022-10-16T16:08:20.950Z,98698.09
2022-10-16T16:10:59.674Z,98700.47
2022-10-16T16:13:27.554Z,98689.44
2022-10-16T16:15:57.258Z,98692.44
2022-10-16T16:18:25.984Z,98694.03
2022-10-16T16:20:54.283Z,98698.56
2022-10-16T16:23:23.096Z,98691.28
2022-10-16T16:26:06.200Z,98703.88
2022-10-16T16:28:34.371Z,98701.34
2022-10-16T16:31:04.059Z,98714.56
2022-10-16T16:33:33.019Z,98716.53
2022-10-16T16:36:02.616Z,98716.16
2022-10-16T16:38:30.756Z,98724.09
2022-10-16T16:40:58.833Z,98720.72
2022-10-16T16:43:27.091Z,98722.91
2022-10-16T16:45:55.831Z,98726.84
2022-10-16T16:48:24.926Z,98727.16
2022-10-16T16:50:52.929Z,98731.38
2022-10-16T16:53:20.675Z,98731.56
2022-10-16T16:55:48.610Z,98735.16
2022-10-16T16:58:16.504Z,98741.59
2022-10-16T17:00:56.530Z,98736.03
2022-10-16T17:03:26.173Z,98741.16
2022-10-16T17:05:57.922Z,98739.53
2022-10-16T17:08:25.604Z,98748.81
2022-10-16T17:10:55.929Z,98749.69
2022-10-16T17:13:25.102Z,98737.69
2022-10-16T17:15:54.033Z,98744.75
2022-10-16T17:18:23.257Z,98736.97
2022-10-16T17:20:52.726Z,98750.41
2022-10-16T17:23:21.349Z,98763.00
2022-10-16T17:25:49.346Z,98764.00
2022-10-16T17:28:17.291Z,98767.25
2022-10-16T17:30:45.446Z,98757.31
2022-10-16T17:33:14.649Z,98763.72
2022-10-16T17:35:44.455Z,98779.25
2022-10-16T17:38:16.683Z,98778.75
2022-10-16T17:40:44.783Z,98778.84
2022-10-16T17:43:12.469Z,98783.47
2022-10-16T17:45:40.545Z,98787.47
2022-10-16T17:48:08.483Z,98786.63
2022-10-16T17:50:40.983Z,98790.22
2022-10-16T17:53:08.865Z,98786.34
2022-10-16T17:55:40.370Z,98785.28
2022-10-16T17:58:08.468Z,98785.19
2022-10-16T18:00:36.566Z,98791.41
2022-10-16T18:03:04.922Z,98795.31
2022-10-16T18:05:32.834Z,98793.88
2022-10-16T18:08:00.676Z,98795.56
2022-10-16T18:10:28.776Z,98793.41
2022-10-16T18:12:57.826Z,98800.47
2022-10-16T18:15:25.894Z,98809.88
2022-10-16T18:17:54.867Z,98815.91
2022-10-16T18:20:23.110Z,98821.03
2022-10-16T18:22:50.953Z,98826.44
2022-10-16T18:25:18.950Z,98824.66
2022-10-16T18:27:46.708Z,98817.56
2022-10-16T18:30:16.307Z,98827.31
2022-10-16T18:32:44.262Z,98828.56
2022-10-16T18:37:40.945Z,98844.25
2022-10-16T18:40:09.386Z,98851.63
2022-10-16T18:42:37.120Z,98850.78
2022-10-16T18:45:05.573Z,98855.13
2022-10-16T18:47:34.868Z,98850.28
2022-10-16T18:50:02.775Z,98857.94
2022-10-16T18:52:32.236Z,98870.06
2022-10-16T18:55:00.522Z,98864.94
2022-10-16T18:57:30.063Z,98858.91
2022-10-16T18:59:58.614Z,98871.22
2022-10-16T19:02:26.617Z,98880.34
2022-10-16T19:04:55.910Z,98880.34
2022-10-16T19:07:23.667Z,98891.25
2022-10-16T19:09:51.746Z,98882.19
2022-10-16T19:12:19.517Z,98884.16
2022-10-16T19:14:48.964Z,98886.91
2022-10-16T19:17:16.826Z,98897.41
2022-10-16T19:19:44.746Z,98899.38
2022-10-16T19:22:27.883Z,98899.38
2022-10-16T19:24:56.423Z,98898.66
2022-10-16T19:27:24.406Z,98909.63
2022-10-16T19:29:52.306Z,98906.19
2022-10-16T19:32:20.132Z,98916.28
2022-10-16T19:34:51.097Z,98905.56
2022-10-16T19:37:25.669Z,98910.81
2022-10-16T19:39:54.235Z,98919.09
2022-10-16T19:42:22.093Z,98911.22
2022-10-16T19:44:50.794Z,98905.38
2022-10-16T19:47:20.884Z,98918.78
2022-10-16T19:49:52.524Z,98919.06
2022-10-16T19:52:23.051Z,98914.56
2022-10-16T19:54:50.994Z,98917.44
2022-10-16T19:57:18.914Z,98910.94
2022-10-16T19:59:47.273Z,98921.19
2022-10-16T20:02:15.036Z,98912.63
2022-10-16T20:04:43.115Z,98911.31
2022-10-16T20:07:11.126Z,98906.78
2022-10-16T20:09:40.442Z,98912.22
2022-10-16T20:12:08.158Z,98912.25
2022-10-16T20:14:36.414Z,98911.66
2022-10-16T20:17:04.290Z,98919.19
2022-10-16T20:19:32.497Z,98927.03
2022-10-16T20:22:00.447Z,98925.78
2022-10-16T20:24:28.572Z,98914.16
2022-10-16T20:26:58.812Z,98929.53
2022-10-16T20:29:26.916Z,98935.66
2022-10-16T20:31:54.677Z,98933.09
2022-10-16T20:34:22.618Z,98934.28
2022-10-16T20:36:50.777Z,98940.25
2022-10-16T20:39:18.657Z,98952.84
2022-10-16T20:41:46.377Z,98948.34
2022-10-16T20:44:15.787Z,98959.69
2022-10-16T20:46:43.487Z,98956.28
2022-10-16T20:49:27.882Z,98956.88
2022-10-16T20:51:56.866Z,98961.66
2022-10-16T20:54:24.818Z,98960.88
2022-10-16T20:56:52.986Z,98966.78
2022-10-16T20:59:22.599Z,98955.94
2022-10-16T21:01:50.386Z,98957.44
2022-10-16T21:04:18.321Z,98954.44
2022-10-16T21:06:46.167Z,98962.91
2022-10-16T21:09:14.089Z,98963.81
2022-10-16T21:11:41.782Z,98968.13
2022-10-16T21:14:10.173Z,98965.41
2022-10-16T21:16:39.260Z,98969.28
2022-10-16T21:19:07.349Z,98974.66
2022-10-16T21:21:38.125Z,98982.63
2022-10-16T21:24:07.829Z,98977.94
2022-10-16T21:26:37.614Z,98984.56
2022-10-16T21:29:07.732Z,98987.84
2022-10-16T21:31:36.118Z,98990.84
2022-10-16T21:34:05.951Z,98988.44
2022-10-16T21:36:36.613Z,98996.56
2022-10-16T21:39:06.633Z,99007.78
2022-10-16T21:41:35.641Z,99011.31
2022-10-16T21:44:04.730Z,99006.75
2022-10-16T21:46:34.450Z,99004.69
2022-10-16T21:49:05.957Z,99014.31
2022-10-16T21:51:36.838Z,99012.00
2022-10-16T21:54:07.018Z,99014.31
2022-10-16T21:56:35.467Z,99018.84
2022-10-16T21:59:03.589Z,99009.28
2022-10-16T22:01:31.829Z,99020.00
2022-10-16T22:04:00.659Z,99027.66
2022-10-16T22:06:30.099Z,99027.78
2022-10-16T22:09:00.363Z,99026.84
2022-10-16T22:11:31.241Z,99029.28
2022-10-16T22:13:59.402Z,99033.69
2022-10-16T22:16:27.696Z,99029.16
2022-10-16T22:18:57.305Z,99033.16
2022-10-16T22:21:25.819Z,99030.06
2022-10-16T22:23:55.119Z,99030.41
2022-10-16T22:26:22.919Z,99037.50
2022-10-16T22:28:51.431Z,99037.75
2022-10-16T22:31:19.290Z,99031.50
2022-10-16T22:33:47.322Z,99036.84
2022-10-16T22:36:16.061Z,99032.50
2022-10-16T22:38:43.922Z,99042.78
2022-10-16T22:41:14.641Z,99035.00
2022-10-16T22:43:44.393Z,99038.63
2022-10-16T22:46:15.211Z,99028.38
2022-10-16T22:48:43.826Z,99033.84
2022-10-16T22:51:16.651Z,99045.13
2022-10-16T22:53:46.504Z,99046.34
2022-10-16T22:56:17.104Z,99033.25
2022-10-16T22:58:45.332Z,99045.34
2022-10-16T23:01:15.715Z,99037.00
2022-10-16T23:03:43.666Z,99036.44
2022-10-16T23:06:11.433Z,99047.69
2022-10-16T23:08:39.505Z,99045.97
2022-10-16T23:11:09.196Z,99052.56
2022-10-16T23:13:39.559Z,99039.69
2022-10-16T23:16:08.507Z,99052.22
2022-10-16T23:18:36.422Z,99046.22
2022-10-16T23:21:06.335Z,99050.28
2022-10-16T23:23:35.970Z,99047.44
2022-10-16T23:26:03.877Z,99047.56
2022-10-16T23:28:32.231Z,99054.56
2022-10-16T23:31:01.810Z,99052.69
2022-10-16T23:33:29.721Z,99053.91
2022-10-16T23:35:57.404Z,99057.91
2022-10-16T23:38:25.588Z,99055.84
2022-10-16T23:40:53.341Z,99054.44
2022-10-16T23:43:21.238Z,99058.78
2022-10-16T23:45:49.139Z,99071.59
2022-10-16T23:48:18.349Z,99064.38
2022-10-16T23:50:46.112Z,99067.44
2022-10-16T23:53:14.325Z,99070.56
2022-10-16T23:55:41.999Z,99062.06
2022-10-16T23:58:09.980Z,99068.19
